Main page
METAR-TAF:

METAR-TAF

Airports :

RAF Fairford

Fairford, England

latitude: 51-41N, longitude: 001-47W, elevation: 87 m

Current weather observation

The report was made 23 minutes ago, at 17:56 UTC
Wind 16 kt from the South/Southwest with gusts up to 21 kt
Temperature 10°C
Humidity 100%
Pressure 995 hPa
Visibility 10 km or more
Broken clouds at a height of 1000 ft
Overcast at a height of 1500 ft
light rain

METAR: EGVA 281756Z AUTO 21016G21KT 9999 -RA BKN010 OVC015 10/10 A2937 RMK AO2 SLP951 P0003 60019 T01040102 10113 20068 57021 $

Time: 18:19 (18:19 UTC)


TAF: missing

Weather observations and forecasts of more than 4000 airports (METAR and TAF reports).

The available stations are represented by yellow and red dots on the map.

Hover mouse over dot to see the name of the station.

Then click to see weather observations and forecasts.

To change the map : click on the green buttons with a black cross to zoom in, on the green button with a dash to zoom out, or on the green arrows for adjacent maps.


METAR-TAF: